createdAt,value
2017-06-08T00:00:26.801Z,0
2017-06-08T00:01:34.556Z,0
2017-06-08T00:02:42.634Z,0
2017-06-08T00:03:50.722Z,0
2017-06-08T00:04:58.805Z,0
2017-06-08T00:06:06.890Z,0
2017-06-08T00:07:14.977Z,0
2017-06-08T00:08:23.060Z,0
2017-06-08T00:09:31.151Z,0
2017-06-08T00:10:39.246Z,0
2017-06-08T00:11:47.347Z,0
2017-06-08T00:12:55.409Z,0
2017-06-08T00:14:03.493Z,0
2017-06-08T00:15:11.578Z,0
2017-06-08T00:16:19.678Z,0
2017-06-08T00:17:27.970Z,0
2017-06-08T00:18:35.935Z,0
2017-06-08T00:19:44.365Z,0
2017-06-08T00:20:52.002Z,0
2017-06-08T00:22:00.086Z,0
2017-06-08T00:23:08.172Z,0
2017-06-08T00:24:16.289Z,0
2017-06-08T00:25:24.345Z,0
2017-06-08T00:26:32.457Z,0
2017-06-08T00:27:40.632Z,0
2017-06-08T00:28:48.597Z,0
2017-06-08T00:29:56.679Z,0
2017-06-08T00:31:04.766Z,0
2017-06-08T00:32:12.850Z,0
2017-06-08T00:33:20.936Z,0
2017-06-08T00:34:29.094Z,0
2017-06-08T00:35:37.104Z,0
2017-06-08T00:36:45.191Z,0
2017-06-08T00:37:53.304Z,0
2017-06-08T00:39:01.360Z,0
2017-06-08T00:40:09.447Z,0
2017-06-08T00:41:17.536Z,0
2017-06-08T00:42:25.625Z,0
2017-06-08T00:43:33.704Z,0
2017-06-08T00:44:41.788Z,0
2017-06-08T00:45:50.221Z,0
2017-06-08T00:46:57.958Z,0
2017-06-08T00:48:06.045Z,0
2017-06-08T00:49:14.128Z,0
2017-06-08T00:50:22.269Z,0
2017-06-08T00:51:30.370Z,0
2017-06-08T00:52:38.384Z,0
2017-06-08T00:53:46.471Z,0
2017-06-08T00:54:54.553Z,0
2017-06-08T00:56:02.641Z,0
2017-06-08T00:57:10.721Z,0
2017-06-08T00:58:18.807Z,0
2017-06-08T00:59:26.897Z,0
2017-06-08T01:00:34.981Z,0
2017-06-08T01:01:43.060Z,0
2017-06-08T01:02:51.151Z,0
2017-06-08T01:03:59.240Z,0
2017-06-08T01:05:07.341Z,0
2017-06-08T01:06:15.423Z,0
2017-06-08T01:07:23.483Z,0
2017-06-08T01:08:31.568Z,0
2017-06-08T01:09:39.651Z,0
2017-06-08T01:10:47.738Z,0
2017-06-08T01:11:55.821Z,0
2017-06-08T01:13:03.907Z,0
2017-06-08T01:14:11.993Z,0
2017-06-08T01:15:20.076Z,0
2017-06-08T01:16:28.166Z,0
2017-06-08T01:17:36.282Z,0
2017-06-08T01:18:44.343Z,0
2017-06-08T01:19:52.427Z,0
2017-06-08T01:21:01.034Z,0
2017-06-08T01:22:08.606Z,0
2017-06-08T01:23:16.690Z,0
2017-06-08T01:24:24.775Z,0
2017-06-08T01:25:32.919Z,0
2017-06-08T01:26:40.943Z,0
2017-06-08T01:27:49.030Z,0
2017-06-08T01:28:57.116Z,0
2017-06-08T01:30:05.200Z,0
2017-06-08T01:31:13.288Z,0
2017-06-08T01:32:21.380Z,0
2017-06-08T01:33:29.453Z,0
2017-06-08T01:34:37.540Z,0
2017-06-08T01:35:45.624Z,0
2017-06-08T01:36:53.711Z,0
2017-06-08T01:38:01.794Z,0
2017-06-08T01:39:09.877Z,0
2017-06-08T01:40:17.965Z,0
2017-06-08T01:41:26.049Z,0
2017-06-08T01:42:34.183Z,0
2017-06-08T01:43:42.219Z,0
2017-06-08T01:44:50.552Z,0
2017-06-08T01:45:58.387Z,0
2017-06-08T01:47:06.471Z,0
2017-06-08T01:48:14.558Z,0
2017-06-08T01:49:22.642Z,0
2017-06-08T01:50:30.727Z,0
2017-06-08T01:51:38.812Z,0
2017-06-08T01:52:46.894Z,0
2017-06-08T01:53:54.986Z,0
2017-06-08T01:55:03.063Z,0
2017-06-08T01:56:11.149Z,0
2017-06-08T01:57:19.234Z,0
2017-06-08T01:58:27.321Z,0
2017-06-08T01:59:35.474Z,0
2017-06-08T02:00:43.490Z,0
2017-06-08T02:01:51.574Z,0
2017-06-08T02:02:59.659Z,0
2017-06-08T02:04:07.740Z,0
2017-06-08T02:05:15.827Z,0
2017-06-08T02:06:23.911Z,0
2017-06-08T02:07:31.998Z,0
2017-06-08T02:08:40.083Z,0
2017-06-08T02:09:48.170Z,0
2017-06-08T02:10:56.254Z,0
2017-06-08T02:12:04.338Z,0
2017-06-08T02:13:12.422Z,0
2017-06-08T02:14:20.507Z,0
2017-06-08T02:15:28.597Z,0
2017-06-08T02:16:36.742Z,0
2017-06-08T02:17:44.762Z,0
2017-06-08T02:18:52.847Z,0
2017-06-08T02:20:00.930Z,0
2017-06-08T02:21:09.036Z,0
2017-06-08T02:22:17.102Z,0
2017-06-08T02:23:25.188Z,0
2017-06-08T02:24:33.329Z,0
2017-06-08T02:25:41.379Z,0
2017-06-08T02:26:49.443Z,0
2017-06-08T02:27:57.527Z,0
2017-06-08T02:29:05.612Z,0
2017-06-08T02:30:13.698Z,0
2017-06-08T02:31:21.782Z,0
2017-06-08T02:32:29.866Z,0
2017-06-08T02:33:37.993Z,0
2017-06-08T02:34:46.035Z,0
2017-06-08T02:35:54.121Z,0
2017-06-08T02:37:02.220Z,0
2017-06-08T02:38:10.293Z,0
2017-06-08T02:39:18.375Z,0
2017-06-08T02:40:26.460Z,0
2017-06-08T02:41:34.547Z,0
2017-06-08T02:42:42.629Z,0
2017-06-08T02:43:50.712Z,0
2017-06-08T02:44:58.798Z,0
2017-06-08T02:46:06.885Z,0
2017-06-08T02:47:14.970Z,0
2017-06-08T02:48:23.060Z,0
2017-06-08T02:49:31.139Z,0
2017-06-08T02:50:39.321Z,0
2017-06-08T02:51:47.308Z,0
2017-06-08T02:52:55.400Z,0
2017-06-08T02:54:03.477Z,0
2017-06-08T02:55:11.567Z,0
2017-06-08T02:56:19.674Z,0
2017-06-08T02:57:27.733Z,0
2017-06-08T02:58:35.844Z,0
2017-06-08T02:59:43.903Z,0
2017-06-08T03:00:51.987Z,0
2017-06-08T03:02:00.072Z,0
2017-06-08T03:03:08.156Z,0
2017-06-08T03:04:16.267Z,0
2017-06-08T03:05:24.325Z,0
2017-06-08T03:06:32.410Z,0
2017-06-08T03:07:40.510Z,0
2017-06-08T03:07:40.523Z,0
2017-06-08T03:08:48.587Z,0
2017-06-08T03:09:56.671Z,0
2017-06-08T03:11:04.759Z,0
2017-06-08T03:12:12.838Z,0
2017-06-08T03:13:20.926Z,0
2017-06-08T03:14:29.009Z,0
2017-06-08T03:15:37.096Z,0
2017-06-08T03:16:45.179Z,0
2017-06-08T03:17:53.320Z,0
2017-06-08T03:19:01.372Z,0
2017-06-08T03:20:09.461Z,0
2017-06-08T03:21:17.517Z,0
2017-06-08T03:22:25.604Z,0
2017-06-08T03:23:33.687Z,0
2017-06-08T03:24:41.772Z,0
2017-06-08T03:25:49.857Z,0
2017-06-08T03:26:57.942Z,0
2017-06-08T03:28:06.026Z,0
2017-06-08T03:29:14.136Z,0
2017-06-08T03:30:22.202Z,0
2017-06-08T03:31:30.304Z,0
2017-06-08T03:32:38.364Z,4
2017-06-08T03:33:46.476Z,4
2017-06-08T03:34:54.555Z,0
2017-06-08T03:36:02.619Z,0
2017-06-08T03:37:10.704Z,0
2017-06-08T03:38:18.789Z,0
2017-06-08T03:39:26.872Z,0
2017-06-08T03:40:34.955Z,0
2017-06-08T03:41:43.042Z,4
2017-06-08T03:42:51.126Z,4
2017-06-08T03:43:59.211Z,0
2017-06-08T03:45:07.295Z,0
2017-06-08T03:46:15.389Z,0
2017-06-08T03:47:23.466Z,0
2017-06-08T03:48:31.557Z,4
2017-06-08T03:49:39.633Z,4
2017-06-08T03:50:47.716Z,4
2017-06-08T03:51:55.805Z,4
2017-06-08T03:53:03.885Z,0
2017-06-08T03:54:11.973Z,0
2017-06-08T03:55:20.057Z,0
2017-06-08T03:56:28.146Z,0
2017-06-08T03:57:36.283Z,4
2017-06-08T03:58:44.312Z,4
2017-06-08T03:59:52.396Z,4
2017-06-08T04:01:00.490Z,4
2017-06-08T04:02:08.566Z,4
2017-06-08T04:03:16.651Z,0
2017-06-08T04:04:24.736Z,4
2017-06-08T04:05:32.821Z,4
2017-06-08T04:06:40.906Z,4
2017-06-08T04:07:48.996Z,4
2017-06-08T04:08:57.081Z,4
2017-06-08T04:10:05.165Z,4
2017-06-08T04:11:13.257Z,4
2017-06-08T04:12:21.358Z,4
2017-06-08T04:13:29.422Z,4
2017-06-08T04:14:37.515Z,4
2017-06-08T04:15:45.588Z,8
2017-06-08T04:16:53.685Z,4
2017-06-08T04:18:01.758Z,4
2017-06-08T04:19:09.844Z,4
2017-06-08T04:20:17.927Z,8
2017-06-08T04:21:26.013Z,4
2017-06-08T04:22:34.097Z,4
2017-06-08T04:23:42.180Z,8
2017-06-08T04:24:50.301Z,8
2017-06-08T04:25:58.444Z,4
2017-06-08T04:27:06.555Z,4
2017-06-08T04:28:14.727Z,8
2017-06-08T04:29:22.603Z,8
2017-06-08T04:30:30.689Z,8
2017-06-08T04:31:38.774Z,8
2017-06-08T04:32:46.860Z,4
2017-06-08T04:33:54.938Z,4
2017-06-08T04:35:03.024Z,4
2017-06-08T04:36:11.162Z,8
2017-06-08T04:37:19.187Z,4
2017-06-08T04:38:27.297Z,8
2017-06-08T04:39:35.357Z,8
2017-06-08T04:40:43.450Z,8
2017-06-08T04:41:51.523Z,8
2017-06-08T04:42:59.604Z,8
2017-06-08T04:44:07.688Z,8
2017-06-08T04:45:15.779Z,8
2017-06-08T04:46:23.855Z,8
2017-06-08T04:47:32.067Z,8
2017-06-08T04:48:40.029Z,8
2017-06-08T04:49:48.109Z,8
2017-06-08T04:50:56.193Z,8
2017-06-08T04:52:04.299Z,8
2017-06-08T04:53:12.360Z,8
2017-06-08T04:54:20.455Z,12
2017-06-08T04:55:28.526Z,12
2017-06-08T04:56:36.611Z,8
2017-06-08T04:57:44.705Z,12
2017-06-08T04:58:52.780Z,8
2017-06-08T05:00:01.498Z,8
2017-06-08T05:01:08.960Z,12
2017-06-08T05:02:17.034Z,8
2017-06-08T05:03:25.120Z,8
2017-06-08T05:04:33.287Z,8
2017-06-08T05:05:41.554Z,12
2017-06-08T05:06:49.401Z,12
2017-06-08T05:07:57.467Z,12
2017-06-08T05:09:05.549Z,12
2017-06-08T05:10:13.633Z,12
2017-06-08T05:11:21.718Z,8
2017-06-08T05:12:29.805Z,12
2017-06-08T05:13:37.887Z,12
2017-06-08T05:14:45.971Z,12
2017-06-08T05:15:54.061Z,12
2017-06-08T05:17:02.141Z,12
2017-06-08T05:18:10.234Z,12
2017-06-08T05:19:18.314Z,12
2017-06-08T05:20:26.421Z,12
2017-06-08T05:21:34.486Z,12
2017-06-08T05:22:42.567Z,16
2017-06-08T05:23:50.672Z,16
2017-06-08T05:24:58.736Z,16
2017-06-08T05:26:06.825Z,12
2017-06-08T05:27:14.912Z,16
2017-06-08T05:28:23.055Z,16
2017-06-08T05:29:31.080Z,12
2017-06-08T05:30:39.168Z,16
2017-06-08T05:31:47.250Z,16
2017-06-08T05:32:55.335Z,12
2017-06-08T05:34:03.420Z,12
2017-06-08T05:35:11.505Z,16
2017-06-08T05:36:19.591Z,16
2017-06-08T05:37:27.929Z,12
2017-06-08T05:38:35.821Z,12
2017-06-08T05:39:43.851Z,16
2017-06-08T05:40:51.942Z,16
2017-06-08T05:42:00.028Z,16
2017-06-08T05:43:08.116Z,12
2017-06-08T05:44:16.205Z,12
2017-06-08T05:45:24.347Z,12
2017-06-08T05:46:32.431Z,16
2017-06-08T05:47:40.457Z,16
2017-06-08T05:48:48.541Z,12
2017-06-08T05:49:56.626Z,16
2017-06-08T05:51:04.714Z,16
2017-06-08T05:52:12.796Z,16
2017-06-08T05:53:20.882Z,16
2017-06-08T05:54:28.971Z,16
2017-06-08T05:55:37.051Z,16
2017-06-08T05:56:45.139Z,16
2017-06-08T05:57:53.254Z,16
2017-06-08T05:59:01.311Z,16
2017-06-08T06:00:09.404Z,16
2017-06-08T06:01:17.487Z,12
2017-06-08T06:02:25.582Z,16
2017-06-08T06:03:33.658Z,16
2017-06-08T06:04:41.743Z,16
2017-06-08T06:05:49.829Z,16
2017-06-08T06:06:57.911Z,16
2017-06-08T06:08:05.995Z,16
2017-06-08T06:09:14.089Z,16
2017-06-08T06:10:22.436Z,16
2017-06-08T06:11:30.717Z,16
2017-06-08T06:12:38.601Z,16
2017-06-08T06:13:46.532Z,20
2017-06-08T06:14:54.968Z,20
2017-06-08T06:16:02.942Z,20
2017-06-08T06:17:11.514Z,20
2017-06-08T06:18:19.211Z,20
2017-06-08T06:19:27.259Z,16
2017-06-08T06:20:35.164Z,20
2017-06-08T06:21:43.290Z,20
2017-06-08T06:22:51.770Z,20
2017-06-08T06:24:00.776Z,20
2017-06-08T06:25:07.719Z,20
2017-06-08T06:26:15.553Z,20
2017-06-08T06:27:23.681Z,24
2017-06-08T06:28:31.805Z,20
2017-06-08T06:29:40.074Z,24
2017-06-08T06:30:47.876Z,24
2017-06-08T06:31:55.967Z,20
2017-06-08T06:33:04.259Z,24
2017-06-08T06:34:12.081Z,24
2017-06-08T06:35:20.161Z,20
2017-06-08T06:36:28.711Z,24
2017-06-08T06:37:36.373Z,24
2017-06-08T06:38:44.544Z,20
2017-06-08T06:39:52.748Z,24
2017-06-08T06:41:00.665Z,24
2017-06-08T06:42:08.906Z,24
2017-06-08T06:43:17.251Z,24
2017-06-08T06:44:25.163Z,20
2017-06-08T06:45:33.143Z,24
2017-06-08T06:46:41.619Z,24
2017-06-08T06:47:49.180Z,20
2017-06-08T06:48:57.642Z,20
2017-06-08T06:50:05.285Z,24
2017-06-08T06:51:13.388Z,24
2017-06-08T06:52:21.360Z,24
2017-06-08T06:53:29.571Z,28
2017-06-08T06:54:37.612Z,24
2017-06-08T06:55:46.265Z,28
2017-06-08T06:56:53.818Z,28
2017-06-08T06:58:01.993Z,32
2017-06-08T06:59:10.085Z,32
2017-06-08T07:00:18.293Z,28
2017-06-08T07:01:26.074Z,32
2017-06-08T07:02:35.161Z,32
2017-06-08T07:03:42.508Z,32
2017-06-08T07:04:50.352Z,28
2017-06-08T07:05:58.978Z,32
2017-06-08T07:07:06.482Z,32
2017-06-08T07:08:14.733Z,32
2017-06-08T07:09:22.955Z,28
2017-06-08T07:10:30.889Z,32
2017-06-08T07:11:39.188Z,28
2017-06-08T07:12:47.305Z,28
2017-06-08T07:13:55.499Z,32
2017-06-08T07:15:03.509Z,32
2017-06-08T07:16:11.390Z,32
2017-06-08T07:17:19.393Z,32
2017-06-08T07:18:27.430Z,32
2017-06-08T07:19:36.045Z,32
2017-06-08T07:20:44.044Z,32
2017-06-08T07:21:52.095Z,32
2017-06-08T07:22:59.960Z,32
2017-06-08T07:24:07.770Z,32
2017-06-08T07:25:16.526Z,32
2017-06-08T07:26:24.799Z,32
2017-06-08T07:27:32.061Z,36
2017-06-08T07:28:40.169Z,32
2017-06-08T07:29:48.225Z,32
2017-06-08T07:30:56.416Z,32
2017-06-08T07:32:04.438Z,32
2017-06-08T07:33:12.573Z,32
2017-06-08T07:34:20.626Z,32
2017-06-08T07:35:28.592Z,32
2017-06-08T07:36:37.295Z,32
2017-06-08T07:37:45.018Z,28
2017-06-08T07:38:52.952Z,32
2017-06-08T07:40:02.807Z,32
2017-06-08T07:41:09.042Z,32
2017-06-08T07:42:17.182Z,32
2017-06-08T07:43:25.702Z,32
2017-06-08T07:44:33.293Z,32
2017-06-08T07:45:41.670Z,36
2017-06-08T07:46:49.610Z,32
2017-06-08T07:47:57.565Z,32
2017-06-08T07:49:05.779Z,32
2017-06-08T07:50:14.133Z,32
2017-06-08T07:51:22.455Z,32
2017-06-08T07:52:29.881Z,36
2017-06-08T07:53:38.066Z,36
2017-06-08T07:54:46.235Z,36
2017-06-08T07:55:54.465Z,40
2017-06-08T07:57:02.545Z,40
2017-06-08T07:58:10.559Z,36
2017-06-08T07:59:18.417Z,40
2017-06-08T08:00:26.603Z,48
2017-06-08T08:01:34.799Z,44
2017-06-08T08:02:43.089Z,48
2017-06-08T08:03:51.271Z,44
2017-06-08T08:04:59.325Z,48
2017-06-08T08:06:07.459Z,44
2017-06-08T08:07:15.215Z,44
2017-06-08T08:08:23.449Z,48
2017-06-08T08:09:31.269Z,44
2017-06-08T08:10:39.892Z,44
2017-06-08T08:11:47.572Z,48
2017-06-08T08:12:55.501Z,52
2017-06-08T08:14:03.757Z,48
2017-06-08T08:15:11.628Z,48
2017-06-08T08:16:20.101Z,48
2017-06-08T08:17:27.837Z,44
2017-06-08T08:18:36.311Z,48
2017-06-08T08:19:44.022Z,48
2017-06-08T08:20:52.294Z,44
2017-06-08T08:22:00.320Z,44
2017-06-08T08:23:08.499Z,44
2017-06-08T08:24:16.293Z,48
2017-06-08T08:25:24.484Z,44
2017-06-08T08:26:32.697Z,44
2017-06-08T08:27:40.825Z,48
2017-06-08T08:28:48.681Z,48
2017-06-08T08:29:57.284Z,44
2017-06-08T08:31:05.138Z,44
2017-06-08T08:32:13.019Z,44
2017-06-08T08:33:21.251Z,44
2017-06-08T08:34:29.137Z,44
2017-06-08T08:35:37.268Z,40
2017-06-08T08:36:45.368Z,40
2017-06-08T08:37:53.361Z,40
2017-06-08T08:39:01.432Z,44
2017-06-08T08:40:09.602Z,40
2017-06-08T08:41:17.739Z,44
2017-06-08T08:42:26.115Z,40
2017-06-08T08:43:33.772Z,40
2017-06-08T08:44:42.060Z,36
2017-06-08T08:45:50.479Z,40
2017-06-08T08:46:59.001Z,36
2017-06-08T08:48:06.352Z,36
2017-06-08T08:48:06.366Z,36
2017-06-08T08:49:14.812Z,36
2017-06-08T08:50:22.317Z,40
2017-06-08T08:51:30.384Z,40
2017-06-08T08:52:38.508Z,36
2017-06-08T08:53:46.601Z,40
2017-06-08T08:54:55.239Z,40
2017-06-08T08:56:02.668Z,40
2017-06-08T08:57:10.837Z,24
2017-06-08T08:58:19.091Z,24
2017-06-08T08:59:26.949Z,20
2017-06-08T09:00:35.379Z,24
2017-06-08T09:01:43.346Z,28
2017-06-08T09:02:51.405Z,36
2017-06-08T09:03:59.374Z,36
2017-06-08T09:05:07.573Z,36
2017-06-08T09:06:15.511Z,40
2017-06-08T09:07:23.755Z,36
2017-06-08T09:08:31.912Z,36
2017-06-08T09:09:39.838Z,32
2017-06-08T09:10:47.951Z,36
2017-06-08T09:11:55.950Z,36
2017-06-08T09:13:04.411Z,36
2017-06-08T09:14:12.570Z,36
2017-06-08T09:15:20.251Z,40
2017-06-08T09:16:28.377Z,40
2017-06-08T09:17:36.961Z,40
2017-06-08T09:18:44.488Z,36
2017-06-08T09:19:52.656Z,36
2017-06-08T09:21:00.917Z,36
2017-06-08T09:22:08.745Z,36
2017-06-08T09:23:16.790Z,36
2017-06-08T09:24:25.402Z,36
2017-06-08T09:25:32.995Z,36
2017-06-08T09:26:41.092Z,36
2017-06-08T09:27:49.215Z,36
2017-06-08T09:28:57.574Z,36
2017-06-08T09:30:05.394Z,32
2017-06-08T09:31:13.490Z,40
2017-06-08T09:32:21.509Z,32
2017-06-08T09:33:29.790Z,36
2017-06-08T09:34:37.957Z,36
2017-06-08T09:35:45.818Z,32
2017-06-08T09:36:53.905Z,32
2017-06-08T09:38:02.233Z,28
2017-06-08T09:39:12.180Z,32
2017-06-08T09:40:19.591Z,32
2017-06-08T09:41:26.246Z,36
2017-06-08T09:42:34.397Z,36
2017-06-08T09:43:42.434Z,32
2017-06-08T09:44:50.451Z,36
2017-06-08T09:45:59.077Z,32
2017-06-08T09:47:06.775Z,36
2017-06-08T09:48:15.123Z,36
2017-06-08T09:49:22.881Z,32
2017-06-08T09:50:30.986Z,32
2017-06-08T09:51:39.202Z,36
2017-06-08T09:52:47.046Z,36
2017-06-08T09:53:55.213Z,36
2017-06-08T09:55:03.345Z,36
2017-06-08T09:56:11.469Z,36
2017-06-08T09:57:19.594Z,40
2017-06-08T09:58:27.457Z,36
2017-06-08T09:59:36.134Z,36
2017-06-08T10:00:43.904Z,36
2017-06-08T10:01:52.761Z,36
2017-06-08T10:02:59.804Z,36
2017-06-08T10:04:07.945Z,36
2017-06-08T10:05:16.262Z,32
2017-06-08T10:06:24.057Z,36
2017-06-08T10:07:32.182Z,36
2017-06-08T10:08:40.322Z,28
2017-06-08T10:09:48.408Z,32
2017-06-08T10:10:56.525Z,32
2017-06-08T10:12:04.496Z,32
2017-06-08T10:13:12.761Z,36
2017-06-08T10:14:20.701Z,40
2017-06-08T10:15:30.473Z,40
2017-06-08T10:16:37.008Z,36
2017-06-08T10:17:45.382Z,40
2017-06-08T10:18:53.559Z,40
2017-06-08T10:20:01.278Z,44
2017-06-08T10:21:09.755Z,36
2017-06-08T10:22:17.309Z,36
2017-06-08T10:23:25.658Z,36
2017-06-08T10:24:33.514Z,36
2017-06-08T10:25:41.554Z,36
2017-06-08T10:26:50.057Z,36
2017-06-08T10:27:58.216Z,40
2017-06-08T10:29:07.178Z,40
2017-06-08T10:30:14.138Z,36.00
2017-06-08T10:31:21.995Z,40
2017-06-08T10:32:30.096Z,40
2017-06-08T10:33:38.110Z,36
2017-06-08T10:34:46.240Z,40
2017-06-08T10:35:54.614Z,36
2017-06-08T10:37:02.344Z,36
2017-06-08T10:38:10.999Z,36
2017-06-08T10:39:18.958Z,40
2017-06-08T10:40:26.613Z,36
2017-06-08T10:41:35.268Z,36
2017-06-08T10:42:43.202Z,40
2017-06-08T10:43:50.864Z,36
2017-06-08T10:44:59.268Z,36
2017-06-08T10:46:07.124Z,40
2017-06-08T10:47:16.578Z,40
2017-06-08T10:48:23.239Z,36
2017-06-08T10:49:31.419Z,36
2017-06-08T10:50:39.382Z,40
2017-06-08T10:51:48.032Z,40
2017-06-08T10:52:55.784Z,40
2017-06-08T10:54:03.644Z,40
2017-06-08T10:55:12.158Z,40
2017-06-08T10:56:20.161Z,36
2017-06-08T10:57:27.935Z,40
2017-06-08T10:58:36.304Z,40
2017-06-08T10:59:44.105Z,40
2017-06-08T11:00:52.374Z,40
2017-06-08T11:02:01.413Z,40
2017-06-08T11:03:08.386Z,40
2017-06-08T11:04:16.657Z,36
2017-06-08T11:05:24.653Z,36
2017-06-08T11:06:32.669Z,40
2017-06-08T11:07:41.029Z,40
2017-06-08T11:08:48.869Z,40
2017-06-08T11:09:56.909Z,40
2017-06-08T11:11:06.445Z,40
2017-06-08T11:12:13.088Z,40
2017-06-08T11:13:21.468Z,40
2017-06-08T11:14:29.316Z,36
2017-06-08T11:15:37.527Z,36
2017-06-08T11:16:45.724Z,32
2017-06-08T11:17:53.588Z,36
2017-06-08T11:19:01.614Z,32
2017-06-08T11:20:09.771Z,36
2017-06-08T11:21:17.721Z,36
2017-06-08T11:22:25.882Z,36
2017-06-08T11:23:34.483Z,36
2017-06-08T11:24:42.349Z,36
2017-06-08T11:25:50.077Z,32
2017-06-08T11:26:58.176Z,36
2017-06-08T11:28:06.831Z,32
2017-06-08T11:29:14.361Z,36
2017-06-08T11:30:22.423Z,32
2017-06-08T11:31:30.558Z,32
2017-06-08T11:32:39.122Z,36
2017-06-08T11:33:46.628Z,32
2017-06-08T11:34:54.798Z,32
2017-06-08T11:36:03.069Z,32
2017-06-08T11:37:11.158Z,32
2017-06-08T11:38:19.114Z,32
2017-06-08T11:39:27.126Z,32
2017-06-08T11:40:35.778Z,36
2017-06-08T11:41:43.396Z,32
2017-06-08T11:42:51.575Z,32
2017-06-08T11:43:59.547Z,32
2017-06-08T11:45:07.481Z,28
2017-06-08T11:46:15.863Z,32
2017-06-08T11:47:23.683Z,32
2017-06-08T11:48:31.813Z,36
2017-06-08T11:49:40.249Z,32
2017-06-08T11:50:48.227Z,36
2017-06-08T11:51:56.095Z,36
2017-06-08T11:53:05.499Z,36
2017-06-08T11:54:12.716Z,32
2017-06-08T11:55:20.826Z,32
2017-06-08T11:56:28.411Z,32
2017-06-08T11:57:37.755Z,36
2017-06-08T11:58:44.522Z,36
2017-06-08T11:59:52.544Z,32
2017-06-08T12:01:00.683Z,36
2017-06-08T12:02:08.820Z,36
2017-06-08T12:03:16.943Z,32
2017-06-08T12:04:24.925Z,32
2017-06-08T12:05:33.487Z,36
2017-06-08T12:06:41.081Z,32
2017-06-08T12:07:49.809Z,32
2017-06-08T12:08:57.483Z,32
2017-06-08T12:10:05.471Z,32
2017-06-08T12:11:13.762Z,36
2017-06-08T12:12:21.531Z,36
2017-06-08T12:13:29.819Z,36
2017-06-08T12:14:37.997Z,36
2017-06-08T12:15:45.883Z,32
2017-06-08T12:16:54.519Z,36
2017-06-08T12:18:02.018Z,32
2017-06-08T12:19:10.209Z,32
2017-06-08T12:20:19.689Z,32
2017-06-08T12:21:26.218Z,32
2017-06-08T12:22:34.370Z,32
2017-06-08T12:23:42.800Z,28
2017-06-08T12:24:50.733Z,32
2017-06-08T12:25:58.607Z,28
2017-06-08T12:27:07.100Z,28
2017-06-08T12:28:14.767Z,28
2017-06-08T12:29:22.963Z,24
2017-06-08T12:30:30.931Z,28
2017-06-08T12:31:39.385Z,28
2017-06-08T12:32:47.381Z,24
2017-06-08T12:33:55.470Z,24
2017-06-08T12:35:03.837Z,24
2017-06-08T12:36:11.446Z,24
2017-06-08T12:37:20.066Z,28
2017-06-08T12:38:27.631Z,28
2017-06-08T12:39:36.172Z,24
2017-06-08T12:40:43.782Z,28
2017-06-08T12:41:51.877Z,24
2017-06-08T12:43:00.000Z,24
2017-06-08T12:44:08.410Z,24
2017-06-08T12:45:16.319Z,24
2017-06-08T12:46:24.448Z,28
2017-06-08T12:47:32.261Z,24
2017-06-08T12:48:40.767Z,24
2017-06-08T12:49:48.431Z,24
2017-06-08T12:50:56.663Z,24
2017-06-08T12:52:04.693Z,24
2017-06-08T12:53:12.637Z,24
2017-06-08T12:54:20.778Z,24
2017-06-08T12:55:28.888Z,24
2017-06-08T12:56:37.176Z,24
2017-06-08T12:57:45.227Z,24
2017-06-08T12:58:53.155Z,24
2017-06-08T13:00:01.728Z,24
2017-06-08T13:01:09.318Z,24
2017-06-08T13:02:17.467Z,24
2017-06-08T13:03:25.435Z,24
2017-06-08T13:04:33.762Z,24
2017-06-08T13:05:41.871Z,24
2017-06-08T13:06:49.744Z,24
2017-06-08T13:07:57.978Z,24
2017-06-08T13:09:05.954Z,20
2017-06-08T13:10:14.016Z,20
2017-06-08T13:11:22.357Z,20
2017-06-08T13:12:30.162Z,24
2017-06-08T13:13:38.145Z,20
2017-06-08T13:14:46.228Z,20
2017-06-08T13:15:54.314Z,20
2017-06-08T13:17:02.402Z,24
2017-06-08T13:18:10.486Z,20
2017-06-08T13:19:18.573Z,20
2017-06-08T13:20:26.665Z,20
2017-06-08T13:21:34.746Z,24
2017-06-08T13:22:42.832Z,20
2017-06-08T13:23:50.917Z,20
2017-06-08T13:24:59.001Z,20
2017-06-08T13:26:07.086Z,20
2017-06-08T13:27:15.177Z,20
2017-06-08T13:28:23.258Z,20
2017-06-08T13:29:31.351Z,24
2017-06-08T13:30:39.455Z,20
2017-06-08T13:31:47.517Z,20
2017-06-08T13:32:55.604Z,20
2017-06-08T13:34:03.687Z,24
2017-06-08T13:35:11.798Z,20
2017-06-08T13:36:19.859Z,20
2017-06-08T13:37:27.953Z,16
2017-06-08T13:38:36.029Z,20
2017-06-08T13:39:44.118Z,20
2017-06-08T13:40:52.202Z,20
2017-06-08T13:42:00.287Z,20
2017-06-08T13:43:08.382Z,16
2017-06-08T13:44:16.459Z,20
2017-06-08T13:45:24.544Z,20
2017-06-08T13:46:32.684Z,20
2017-06-08T13:47:40.722Z,20
2017-06-08T13:48:48.809Z,16
2017-06-08T13:49:56.894Z,16
2017-06-08T13:51:05.005Z,20
2017-06-08T13:52:13.067Z,20
2017-06-08T13:53:21.157Z,20
2017-06-08T13:54:29.234Z,16
2017-06-08T13:55:37.322Z,16
2017-06-08T13:56:45.408Z,20
2017-06-08T13:57:53.492Z,20
2017-06-08T13:59:01.580Z,20
2017-06-08T14:00:09.668Z,16
2017-06-08T14:01:17.752Z,16
2017-06-08T14:02:25.838Z,20
2017-06-08T14:03:33.924Z,20
2017-06-08T14:04:42.009Z,16
2017-06-08T14:05:50.096Z,16
2017-06-08T14:06:58.180Z,16
2017-06-08T14:08:06.268Z,20
2017-06-08T14:09:14.390Z,20
2017-06-08T14:10:22.447Z,20
2017-06-08T14:11:30.532Z,16
2017-06-08T14:12:38.618Z,16
2017-06-08T14:13:46.750Z,16
2017-06-08T14:14:54.791Z,16
2017-06-08T14:16:02.876Z,20
2017-06-08T14:17:11.000Z,20
2017-06-08T14:18:19.055Z,20
2017-06-08T14:19:27.146Z,16
2017-06-08T14:20:35.234Z,16
2017-06-08T14:21:43.343Z,16
2017-06-08T14:22:51.406Z,16
2017-06-08T14:23:59.501Z,16
2017-06-08T14:25:07.578Z,16
2017-06-08T14:26:15.662Z,20
2017-06-08T14:27:23.750Z,20
2017-06-08T14:28:31.834Z,16
2017-06-08T14:29:39.920Z,16
2017-06-08T14:30:48.006Z,16
2017-06-08T14:31:56.100Z,16
2017-06-08T14:33:04.178Z,20
2017-06-08T14:34:12.266Z,20
2017-06-08T14:35:20.353Z,16
2017-06-08T14:36:28.438Z,16
2017-06-08T14:37:37.035Z,16
2017-06-08T14:38:44.766Z,16
2017-06-08T14:39:53.213Z,16
2017-06-08T14:41:01.342Z,16
2017-06-08T14:42:09.278Z,16
2017-06-08T14:43:17.200Z,20
2017-06-08T14:44:25.370Z,16
2017-06-08T14:45:33.528Z,16
2017-06-08T14:46:41.471Z,16
2017-06-08T14:47:49.510Z,16
2017-06-08T14:48:57.657Z,16
2017-06-08T14:50:05.509Z,16
2017-06-08T14:51:13.550Z,16
2017-06-08T14:52:21.643Z,16
2017-06-08T14:53:29.832Z,16
2017-06-08T14:54:38.043Z,16
2017-06-08T14:55:45.942Z,16
2017-06-08T14:56:54.031Z,16
2017-06-08T14:58:02.111Z,16
2017-06-08T14:59:10.242Z,16
2017-06-08T15:00:18.291Z,16
2017-06-08T15:01:26.348Z,16
2017-06-08T15:02:34.650Z,16
2017-06-08T15:03:42.686Z,12
2017-06-08T15:04:50.792Z,16
2017-06-08T15:05:58.818Z,16
2017-06-08T15:07:06.916Z,16
2017-06-08T15:08:15.032Z,16
2017-06-08T15:09:23.118Z,16
2017-06-08T15:10:31.198Z,16
2017-06-08T15:11:39.423Z,12
2017-06-08T15:12:47.431Z,16
2017-06-08T15:13:55.900Z,16
2017-06-08T15:15:03.823Z,16
2017-06-08T15:16:12.004Z,16
2017-06-08T15:17:19.842Z,16
2017-06-08T15:18:27.962Z,16
2017-06-08T15:19:36.154Z,16
2017-06-08T15:20:44.154Z,12
2017-06-08T15:21:52.137Z,12
2017-06-08T15:23:00.390Z,12
2017-06-08T15:24:08.678Z,12
2017-06-08T15:25:16.355Z,16
2017-06-08T15:26:24.343Z,16
2017-06-08T15:27:32.629Z,16
2017-06-08T15:28:40.589Z,16
2017-06-08T15:29:48.494Z,16
2017-06-08T15:30:56.574Z,12
2017-06-08T15:32:04.660Z,12
2017-06-08T15:33:12.755Z,12
2017-06-08T15:34:20.833Z,16
2017-06-08T15:35:28.916Z,16
2017-06-08T15:36:37.102Z,16
2017-06-08T15:37:45.087Z,16
2017-06-08T15:38:53.183Z,16
2017-06-08T15:40:01.269Z,16
2017-06-08T15:41:09.348Z,12
2017-06-08T15:42:17.434Z,12
2017-06-08T15:43:25.519Z,12
2017-06-08T15:44:33.621Z,16
2017-06-08T15:45:41.699Z,12
2017-06-08T15:46:49.778Z,12
2017-06-08T15:47:57.862Z,12
2017-06-08T15:49:05.950Z,12
2017-06-08T15:50:14.032Z,16
2017-06-08T15:51:22.121Z,16
2017-06-08T15:52:30.208Z,16
2017-06-08T15:53:38.310Z,12
2017-06-08T15:54:46.381Z,12
2017-06-08T15:55:54.467Z,12
2017-06-08T15:57:02.555Z,12
2017-06-08T15:58:10.647Z,12
2017-06-08T15:59:18.727Z,16
2017-06-08T16:00:26.813Z,12
2017-06-08T16:01:34.899Z,12
2017-06-08T16:02:42.986Z,12
2017-06-08T16:03:51.074Z,12
2017-06-08T16:04:59.158Z,12
2017-06-08T16:06:07.254Z,16
2017-06-08T16:07:15.330Z,12
2017-06-08T16:08:23.416Z,12
2017-06-08T16:09:31.500Z,12
2017-06-08T16:10:39.613Z,12
2017-06-08T16:11:47.687Z,12
2017-06-08T16:12:55.767Z,12
2017-06-08T16:14:03.848Z,12
2017-06-08T16:15:11.934Z,12
2017-06-08T16:16:20.017Z,12
2017-06-08T16:17:28.103Z,12
2017-06-08T16:18:36.192Z,12
2017-06-08T16:19:44.278Z,8